sensor_id;sensor_type;location;lat;lon;timestamp;temperature;humidity
33815;DHT22;20121;51.910;8.406;2022-09-06T06:52:49;20.70;99.90
33815;DHT22;20121;51.910;8.406;2022-09-06T06:55:15;20.70;99.90
33815;DHT22;20121;51.910;8.406;2022-09-06T06:57:40;20.80;99.90
33815;DHT22;20121;51.910;8.406;2022-09-06T07:00:06;20.80;99.90
33815;DHT22;20121;51.910;8.406;2022-09-06T07:02:32;20.90;99.90
33815;DHT22;20121;51.910;8.406;2022-09-06T07:04:58;20.90;99.90
33815;DHT22;20121;51.910;8.406;2022-09-06T07:07:24;20.90;99.90
33815;DHT22;20121;51.910;8.406;2022-09-06T07:09:50;21.00;99.90
33815;DHT22;20121;51.910;8.406;2022-09-06T07:12:16;21.00;99.90
33815;DHT22;20121;51.910;8.406;2022-09-06T07:14:42;21.00;99.90
33815;DHT22;20121;51.910;8.406;2022-09-06T07:17:08;20.30;99.90
33815;DHT22;20121;51.910;8.406;2022-09-06T07:19:33;21.00;99.90
33815;DHT22;20121;51.910;8.406;2022-09-06T07:21:59;21.00;99.90
33815;DHT22;20121;51.910;8.406;2022-09-06T07:24:25;21.00;99.90
33815;DHT22;20121;51.910;8.406;2022-09-06T07:26:50;21.00;99.90
33815;DHT22;20121;51.910;8.406;2022-09-06T07:29:16;21.10;99.90
33815;DHT22;20121;51.910;8.406;2022-09-06T07:31:41;21.10;99.90
33815;DHT22;20121;51.910;8.406;2022-09-06T07:34:07;21.10;99.90
33815;DHT22;20121;51.910;8.406;2022-09-06T07:36:33;21.10;99.90
33815;DHT22;20121;51.910;8.406;2022-09-06T07:38:59;21.20;99.90
33815;DHT22;20121;51.910;8.406;2022-09-06T07:41:25;21.20;99.90
33815;DHT22;20121;51.910;8.406;2022-09-06T07:43:53;21.20;99.90
33815;DHT22;20121;51.910;8.406;2022-09-06T07:46:19;21.30;99.90
33815;DHT22;20121;51.910;8.406;2022-09-06T07:48:46;21.30;99.90
33815;DHT22;20121;51.910;8.406;2022-09-06T07:51:17;21.30;99.90
33815;DHT22;20121;51.910;8.406;2022-09-06T07:53:47;21.30;99.90
33815;DHT22;20121;51.910;8.406;2022-09-06T07:56:15;21.30;99.90
33815;DHT22;20121;51.910;8.406;2022-09-06T07:58:40;21.20;99.90
33815;DHT22;20121;51.910;8.406;2022-09-06T08:01:33;21.30;99.90
33815;DHT22;20121;51.910;8.406;2022-09-06T08:04:07;21.30;99.90
33815;DHT22;20121;51.910;8.406;2022-09-06T08:06:36;21.40;99.90
33815;DHT22;20121;51.910;8.406;2022-09-06T08:09:03;21.50;99.90
33815;DHT22;20121;51.910;8.406;2022-09-06T08:11:32;21.60;99.90
33815;DHT22;20121;51.910;8.406;2022-09-06T08:14:00;21.70;99.90
33815;DHT22;20121;51.910;8.406;2022-09-06T08:16:27;21.90;99.90
33815;DHT22;20121;51.910;8.406;2022-09-06T08:18:55;22.00;99.90
33815;DHT22;20121;51.910;8.406;2022-09-06T08:21:22;22.10;99.90
33815;DHT22;20121;51.910;8.406;2022-09-06T08:23:51;22.20;99.90
33815;DHT22;20121;51.910;8.406;2022-09-06T08:26:18;22.40;99.90
33815;DHT22;20121;51.910;8.406;2022-09-06T08:31:13;22.50;99.80
33815;DHT22;20121;51.910;8.406;2022-09-06T08:33:40;22.70;99.80
33815;DHT22;20121;51.910;8.406;2022-09-06T08:36:07;22.80;99.30
33815;DHT22;20121;51.910;8.406;2022-09-06T08:38:33;22.90;99.00
33815;DHT22;20121;51.910;8.406;2022-09-06T08:43:57;23.10;97.50
33815;DHT22;20121;51.910;8.406;2022-09-06T08:46:46;23.10;97.40
33815;DHT22;20121;51.910;8.406;2022-09-06T08:49:12;23.00;97.00
33815;DHT22;20121;51.910;8.406;2022-09-06T08:54:45;23.20;97.70
33815;DHT22;20121;51.910;8.406;2022-09-06T08:57:39;23.60;97.90
33815;DHT22;20121;51.910;8.406;2022-09-06T09:00:08;23.90;97.00
33815;DHT22;20121;51.910;8.406;2022-09-06T09:02:55;24.40;95.90
33815;DHT22;20121;51.910;8.406;2022-09-06T09:05:32;24.60;96.20
33815;DHT22;20121;51.910;8.406;2022-09-06T09:08:07;25.00;95.40
33815;DHT22;20121;51.910;8.406;2022-09-06T16:29:03;28.50;93.70
33815;DHT22;20121;51.910;8.406;2022-09-06T16:33:56;28.50;94.90
33815;DHT22;20121;51.910;8.406;2022-09-06T16:36:23;28.50;94.90
33815;DHT22;20121;51.910;8.406;2022-09-06T16:38:49;28.40;94.90
33815;DHT22;20121;51.910;8.406;2022-09-06T16:41:18;28.40;95.20
33815;DHT22;20121;51.910;8.406;2022-09-06T16:43:45;28.30;96.50
33815;DHT22;20121;51.910;8.406;2022-09-06T16:46:11;28.30;97.40
33815;DHT22;20121;51.910;8.406;2022-09-06T16:48:37;28.20;97.60
33815;DHT22;20121;51.910;8.406;2022-09-06T16:51:10;28.10;97.60
33815;DHT22;20121;51.910;8.406;2022-09-06T16:53:38;28.10;97.80
33815;DHT22;20121;51.910;8.406;2022-09-06T20:14:45;23.00;89.50
33815;DHT22;20121;51.910;8.406;2022-09-06T20:17:10;22.90;90.30
33815;DHT22;20121;51.910;8.406;2022-09-06T20:19:36;22.80;90.50
33815;DHT22;20121;51.910;8.406;2022-09-06T20:22:01;22.80;90.70
33815;DHT22;20121;51.910;8.406;2022-09-06T20:24:27;22.70;90.40
33815;DHT22;20121;51.910;8.406;2022-09-06T20:26:53;22.70;90.80
33815;DHT22;20121;51.910;8.406;2022-09-06T20:29:19;22.60;90.80
33815;DHT22;20121;51.910;8.406;2022-09-06T20:31:44;22.60;91.00
33815;DHT22;20121;51.910;8.406;2022-09-06T20:34:13;22.50;90.80
33815;DHT22;20121;51.910;8.406;2022-09-06T20:36:40;22.50;91.20
33815;DHT22;20121;51.910;8.406;2022-09-06T20:39:06;22.40;91.20
33815;DHT22;20121;51.910;8.406;2022-09-06T20:41:32;22.40;91.40
33815;DHT22;20121;51.910;8.406;2022-09-06T20:43:58;22.30;91.20
33815;DHT22;20121;51.910;8.406;2022-09-06T20:46:27;22.30;91.50
33815;DHT22;20121;51.910;8.406;2022-09-06T20:48:55;22.30;91.50
33815;DHT22;20121;51.910;8.406;2022-09-06T20:51:22;22.30;91.60
33815;DHT22;20121;51.910;8.406;2022-09-06T20:53:56;22.30;91.50
33815;DHT22;20121;51.910;8.406;2022-09-06T20:56:24;22.30;91.90
33815;DHT22;20121;51.910;8.406;2022-09-06T20:58:58;22.30;92.20
33815;DHT22;20121;51.910;8.406;2022-09-06T21:01:27;22.20;91.90
33815;DHT22;20121;51.910;8.406;2022-09-06T21:03:55;22.20;91.80
33815;DHT22;20121;51.910;8.406;2022-09-06T21:06:22;22.20;92.10
33815;DHT22;20121;51.910;8.406;2022-09-06T21:08:48;22.20;92.00
33815;DHT22;20121;51.910;8.406;2022-09-06T21:11:15;22.10;92.20
33815;DHT22;20121;51.910;8.406;2022-09-06T21:13:41;22.20;92.10
33815;DHT22;20121;51.910;8.406;2022-09-06T21:16:07;22.20;92.40
33815;DHT22;20121;51.910;8.406;2022-09-06T21:18:33;22.20;92.40
33815;DHT22;20121;51.910;8.406;2022-09-06T21:21:02;22.10;92.50
33815;DHT22;20121;51.910;8.406;2022-09-06T21:23:30;22.10;92.40
33815;DHT22;20121;51.910;8.406;2022-09-06T21:26:03;22.10;92.70
33815;DHT22;20121;51.910;8.406;2022-09-06T21:28:31;22.10;92.70
33815;DHT22;20121;51.910;8.406;2022-09-06T21:31:15;22.10;92.70
33815;DHT22;20121;51.910;8.406;2022-09-06T21:33:43;22.10;92.50
33815;DHT22;20121;51.910;8.406;2022-09-06T21:36:22;22.10;92.80
33815;DHT22;20121;51.910;8.406;2022-09-06T21:38:53;22.00;92.90
33815;DHT22;20121;51.910;8.406;2022-09-06T21:41:20;22.00;92.90
33815;DHT22;20121;51.910;8.406;2022-09-06T21:43:51;21.90;92.70
33815;DHT22;20121;51.910;8.406;2022-09-06T21:46:18;21.90;93.20
33815;DHT22;20121;51.910;8.406;2022-09-06T21:48:46;21.90;93.20
33815;DHT22;20121;51.910;8.406;2022-09-06T21:51:14;21.90;93.50
33815;DHT22;20121;51.910;8.406;2022-09-06T21:53:42;21.70;97.40
33815;DHT22;20121;51.910;8.406;2022-09-06T21:56:08;21.80;93.30
33815;DHT22;20121;51.910;8.406;2022-09-06T21:58:34;21.80;93.30
33815;DHT22;20121;51.910;8.406;2022-09-06T22:01:01;21.80;93.40
33815;DHT22;20121;51.910;8.406;2022-09-06T22:03:29;21.80;93.30
33815;DHT22;20121;51.910;8.406;2022-09-06T22:05:55;21.80;93.60
33815;DHT22;20121;51.910;8.406;2022-09-06T22:08:22;21.80;93.40
33815;DHT22;20121;51.910;8.406;2022-09-06T22:10:47;21.80;93.60
33815;DHT22;20121;51.910;8.406;2022-09-06T22:13:14;21.60;99.20
33815;DHT22;20121;51.910;8.406;2022-09-06T22:15:40;21.50;93.60
33815;DHT22;20121;51.910;8.406;2022-09-06T22:18:06;21.80;93.80
33815;DHT22;20121;51.910;8.406;2022-09-06T22:20:33;21.70;99.10
33815;DHT22;20121;51.910;8.406;2022-09-06T22:23:01;21.80;93.50
33815;DHT22;20121;51.910;8.406;2022-09-06T22:25:27;21.80;93.70
33815;DHT22;20121;51.910;8.406;2022-09-06T22:27:53;21.80;93.70
33815;DHT22;20121;51.910;8.406;2022-09-06T22:30:18;21.80;93.80
33815;DHT22;20121;51.910;8.406;2022-09-06T22:32:44;21.80;93.70
33815;DHT22;20121;51.910;8.406;2022-09-06T22:35:10;21.80;94.00
33815;DHT22;20121;51.910;8.406;2022-09-06T22:37:36;21.80;94.00
33815;DHT22;20121;51.910;8.406;2022-09-06T22:40:02;21.70;94.00
33815;DHT22;20121;51.910;8.406;2022-09-06T22:42:29;22.10;99.90
33815;DHT22;20121;51.910;8.406;2022-09-06T22:44:54;21.70;94.20
33815;DHT22;20121;51.910;8.406;2022-09-06T22:47:20;21.80;98.80
33815;DHT22;20121;51.910;8.406;2022-09-06T22:49:46;21.60;94.30
33815;DHT22;20121;51.910;8.406;2022-09-06T22:52:11;21.60;94.60
33815;DHT22;20121;51.910;8.406;2022-09-06T22:54:38;21.60;94.10
33815;DHT22;20121;51.910;8.406;2022-09-06T22:57:04;21.60;94.50
33815;DHT22;20121;51.910;8.406;2022-09-06T22:59:33;21.50;94.60
33815;DHT22;20121;51.910;8.406;2022-09-06T23:01:59;21.50;94.70
33815;DHT22;20121;51.910;8.406;2022-09-06T23:04:24;21.40;94.50
33815;DHT22;20121;51.910;8.406;2022-09-06T23:06:50;21.40;94.90
33815;DHT22;20121;51.910;8.406;2022-09-06T23:09:15;21.40;95.00
33815;DHT22;20121;51.910;8.406;2022-09-06T23:11:47;21.30;95.00
33815;DHT22;20121;51.910;8.406;2022-09-06T23:14:12;21.00;99.90
33815;DHT22;20121;51.910;8.406;2022-09-06T23:16:38;21.30;95.20
33815;DHT22;20121;51.910;8.406;2022-09-06T23:37:20;21.20;95.90
33815;DHT22;20121;51.910;8.406;2022-09-06T23:39:46;21.20;96.30
33815;DHT22;20121;51.910;8.406;2022-09-06T23:42:13;21.10;96.40
33815;DHT22;20121;51.910;8.406;2022-09-06T23:44:38;21.10;96.20
33815;DHT22;20121;51.910;8.406;2022-09-06T23:47:04;21.10;96.50
33815;DHT22;20121;51.910;8.406;2022-09-06T23:49:30;21.10;96.60
33815;DHT22;20121;51.910;8.406;2022-09-06T23:51:56;21.10;96.70
33815;DHT22;20121;51.910;8.406;2022-09-06T23:54:22;21.10;96.50
33815;DHT22;20121;51.910;8.406;2022-09-06T23:56:48;21.10;96.90
33815;DHT22;20121;51.910;8.406;2022-09-06T23:59:13;21.10;96.90
